Timaru, New Zealand
Current Conditions -  °F | °C
As of 3:00 AM on Sunday 21 Dec 2014 (Local Time) from NZCH Reporting Station
Clear Clear  
Wind Chill: 61°   Ceiling: Unl
Heat Index: 61°   Visibility: 6mi
Dew Point: 52°   Wind: 6mph
Humidity: 72%   Direction: 210°SSW
Pressure: 29.59"   Gusts: NA
Location:  44.4°S, 171.25°E
Report Text: NZCH 201500Z AUTO 21005KT 9999 NCD 16/11 Q1002 NOSIG
Loading
Personal Weather Stations






























Interactive Weather Map New forecast layout! Learn more

10-Day Weather Forecast

Advertisements
Track Severe Weather on mobile